Netaji Subhash Chandra Bose International Airport
VECC : now visible

Airfield :











YOU CAN JOIN US ON...

 
LOGIN :

Register | Disclaimer

   EN    FR    IT 

 









Legend :    VFR   Marginal VFR   IFR   Intensive IFR   Very Intensive IFR
Visi :
Ceiling :
>= 8 km
>= 3000ft
5 to 8 km
1000 to 3000 ft
1500m to 5 km
500 to 1000 ft
800 to 1500m
200 to 500 ft
< 800m
< 200 ft
Symbols :   Thunderstorms  Fog  Heavy snow  Heavy precipitations  Wind > 20 kt






- Airport Elevation : 16 ft
- IATA code : CCU


VECC - Netaji Subhash Chandra Bose International

CURRENT METAR :
  • 211430Z 17012KT 4000 HZ SCT100 34/25 Q1003 NOSIG

EXPIRED METARs :
  • 211400Z 19014KT 4000 HZ SCT100 34/27 Q1003 NOSIG
  • 211330Z 19016KT 3500 HZ SCT100 35/27 Q1002 NOSIG
  • 211300Z 17012KT 3500 HZ FEW020 SCT100 36/25 Q1002 NOSIG
  • 211230Z 16006KT 4000 HZ FEW020 SCT100 37/21 Q1001 NOSIG
  • 211200Z 14004KT 4000 HZ FEW020 SCT100 38/21 Q1001 NOSIG
  • 211130Z 12005KT 4500 HZ FEW020 SCT100 38/21 Q1000 NOSIG
  • 211100Z 13006KT 4500 HZ FEW020 SCT100 39/20 Q1000 NOSIG
  • 211030Z 12006KT 5000 HZ FEW100 39/20 Q1000 NOSIG
  • 211000Z 12005KT 5000 HZ FEW100 40/20 Q1001 NOSIG

TAF TAF VECC
Valid from the 21 at 15:00 until the 22 at 00:00 UTC


211400Z 2115/2124 20010KT 3500 HZ FEW020 SCT100
BECMG 2122/2124 2800 HZ SCT020 SCT100
VECF FIR / Asia



MET'MAP, your aeronautical weather chart ! - Copyright ORBIFLY December 2007 - Disclaimer

ORBIFLY MET'MAP TEAM :

Programming & Development : Alexandra Zaïnal
Original concept : Baudouin d'Aumeries
Technical & hardware support : Manuel Goepfert
Assistance : Marc-Olivier Méhu




SOURCES & CREDITS :

   NOAA       Earth
Advisory